createdAt,value
2024-05-09T00:01:51.138Z,47.57
2024-05-09T00:04:21.234Z,47.27
2024-05-09T00:06:53.849Z,48.03
2024-05-09T00:09:23.870Z,47.60
2024-05-09T00:11:54.599Z,47.60
2024-05-09T00:14:24.774Z,47.40
2024-05-09T00:16:54.841Z,47.23
2024-05-09T00:19:25.047Z,47.47
2024-05-09T00:21:57.729Z,47.63
2024-05-09T00:24:27.755Z,47.43
2024-05-09T00:26:57.753Z,47.50
2024-05-09T00:29:27.815Z,47.30
2024-05-09T00:31:57.936Z,47.13
2024-05-09T00:34:28.112Z,47.43
2024-05-09T00:37:00.851Z,47.30
2024-05-09T00:39:30.844Z,47.27
2024-05-09T00:42:01.024Z,47.27
2024-05-09T00:44:31.106Z,47.17
2024-05-09T00:47:01.294Z,47.13
2024-05-09T00:49:31.812Z,47.23
2024-05-09T00:52:05.210Z,47.17
2024-05-09T00:54:35.867Z,46.93
2024-05-09T00:57:07.510Z,47.23
2024-05-09T00:59:38.212Z,47.10
2024-05-09T01:02:09.824Z,47.33
2024-05-09T01:04:39.998Z,47.40
2024-05-09T01:07:15.565Z,46.97
2024-05-09T01:09:45.553Z,47.00
2024-05-09T01:12:16.381Z,47.40
2024-05-09T01:14:46.447Z,47.40
2024-05-09T01:17:17.124Z,47.17
2024-05-09T01:19:47.444Z,46.90
2024-05-09T01:22:20.136Z,47.33
2024-05-09T01:24:52.788Z,46.97
2024-05-09T01:27:22.786Z,47.07
2024-05-09T01:29:52.772Z,47.00
2024-05-09T01:32:22.972Z,47.20
2024-05-09T01:34:53.146Z,46.97
2024-05-09T01:37:23.165Z,47.13
2024-05-09T01:39:55.816Z,47.20
2024-05-09T01:42:25.830Z,47.07
2024-05-09T01:44:55.853Z,47.10
2024-05-09T01:47:26.147Z,47.20
2024-05-09T01:49:57.271Z,47.03
2024-05-09T01:52:27.386Z,46.63
2024-05-09T01:55:02.773Z,47.10
2024-05-09T01:57:34.742Z,47.33
2024-05-09T02:00:07.721Z,46.80
2024-05-09T02:02:40.599Z,46.60
2024-05-09T02:05:11.067Z,46.97
2024-05-09T02:07:41.173Z,46.90
2024-05-09T02:10:20.350Z,47.13
2024-05-09T02:12:53.604Z,46.90
2024-05-09T02:15:23.647Z,47.03
2024-05-09T02:17:53.880Z,47.03
2024-05-09T02:20:33.094Z,46.77
2024-05-09T02:23:07.028Z,46.30
2024-05-09T02:25:40.064Z,46.50
2024-05-09T02:28:10.344Z,46.63
2024-05-09T02:30:42.116Z,46.63
2024-05-09T02:33:14.414Z,46.73
2024-05-09T02:35:45.964Z,46.50
2024-05-09T02:38:13.734Z,46.73
2024-05-09T02:40:46.515Z,46.87
2024-05-09T02:43:13.970Z,46.63
2024-05-09T02:45:44.133Z,46.57
2024-05-09T02:48:13.289Z,46.83
2024-05-09T02:50:44.638Z,46.63
2024-05-09T02:53:12.630Z,46.80
2024-05-09T02:55:43.739Z,46.90
2024-05-09T02:58:13.854Z,46.90
2024-05-09T03:00:43.885Z,46.70
2024-05-09T03:03:14.090Z,46.70
2024-05-09T03:05:46.205Z,46.83
2024-05-09T03:08:14.374Z,46.33
2024-05-09T03:10:44.690Z,46.67
2024-05-09T03:13:16.070Z,46.63
2024-05-09T03:15:46.522Z,46.77
2024-05-09T03:18:14.235Z,46.97
2024-05-09T03:20:44.809Z,46.67
2024-05-09T03:23:15.018Z,46.70
2024-05-09T03:25:45.097Z,47.00
2024-05-09T03:28:15.173Z,46.93
2024-05-09T03:30:45.179Z,46.63
2024-05-09T03:33:15.286Z,46.80
2024-05-09T03:35:46.232Z,46.70
2024-05-09T03:38:16.669Z,46.73
2024-05-09T03:40:51.457Z,46.67
2024-05-09T03:43:24.827Z,46.67
2024-05-09T03:45:54.830Z,46.63
2024-05-09T03:48:22.408Z,46.63
2024-05-09T03:50:53.157Z,46.67
2024-05-09T03:53:21.012Z,46.63
2024-05-09T03:55:52.695Z,46.80
2024-05-09T03:58:22.707Z,46.60
2024-05-09T04:00:52.811Z,46.70
2024-05-09T04:03:20.557Z,46.73
2024-05-09T04:05:50.809Z,46.87
2024-05-09T04:08:18.918Z,46.50
2024-05-09T04:10:49.119Z,46.40
2024-05-09T04:13:16.646Z,46.77
2024-05-09T04:15:49.217Z,46.90
2024-05-09T04:18:17.805Z,46.80
2024-05-09T04:20:47.963Z,46.87
2024-05-09T04:23:15.489Z,46.90
2024-05-09T04:25:47.370Z,46.60
2024-05-09T04:28:15.058Z,46.53
2024-05-09T04:30:45.323Z,46.77
2024-05-09T04:33:19.820Z,46.67
2024-05-09T04:35:49.959Z,46.53
2024-05-09T04:38:17.450Z,46.50
2024-05-09T04:40:47.574Z,46.67
2024-05-09T04:43:15.878Z,46.60
2024-05-09T04:45:46.215Z,46.67
2024-05-09T04:48:16.987Z,46.67
2024-05-09T04:50:47.289Z,46.50
2024-05-09T04:53:16.832Z,46.53
2024-05-09T04:55:47.097Z,47.00
2024-05-09T04:58:14.520Z,47.20
2024-05-09T05:00:46.040Z,46.67
2024-05-09T05:03:16.921Z,46.97
2024-05-09T05:05:47.777Z,47.10
2024-05-09T05:08:17.164Z,46.83
2024-05-09T05:10:49.464Z,47.00
2024-05-09T05:13:20.252Z,46.77
2024-05-09T05:15:53.577Z,47.17
2024-05-09T05:18:24.378Z,46.97
2024-05-09T05:20:54.785Z,46.80
2024-05-09T05:23:23.270Z,46.83
2024-05-09T05:25:55.184Z,46.93
2024-05-09T05:28:23.200Z,46.97
2024-05-09T05:30:53.276Z,47.17
2024-05-09T05:33:23.740Z,47.20
2024-05-09T05:35:53.832Z,47.07
2024-05-09T05:38:27.240Z,47.33
2024-05-09T05:40:55.855Z,47.20
2024-05-09T05:43:25.976Z,47.20
2024-05-09T05:45:53.485Z,46.63
2024-05-09T05:48:26.290Z,46.97
2024-05-09T05:50:53.993Z,46.80
2024-05-09T05:53:24.134Z,46.77
2024-05-09T05:55:51.793Z,46.73
2024-05-09T05:58:22.530Z,47.27
2024-05-09T06:00:53.023Z,47.17
2024-05-09T06:03:25.739Z,46.97
2024-05-09T06:05:53.281Z,47.33
2024-05-09T06:08:24.707Z,47.10
2024-05-09T06:10:53.175Z,47.23
2024-05-09T06:13:23.221Z,47.00
2024-05-09T06:15:50.704Z,47.27
2024-05-09T06:18:20.961Z,47.30
2024-05-09T06:20:52.447Z,46.97
2024-05-09T06:23:22.700Z,46.87
2024-05-09T06:25:50.252Z,47.37
2024-05-09T06:28:20.280Z,47.23
2024-05-09T06:30:47.717Z,47.23
2024-05-09T06:33:18.030Z,47.47
2024-05-09T06:35:47.033Z,47.53
2024-05-09T06:38:19.771Z,47.57
2024-05-09T06:40:47.236Z,47.27
2024-05-09T06:43:19.479Z,47.40
2024-05-09T06:45:48.473Z,47.93
2024-05-09T06:48:22.082Z,47.73
2024-05-09T06:50:50.649Z,47.07
2024-05-09T06:53:25.353Z,47.57
2024-05-09T06:55:53.072Z,47.57
2024-05-09T06:58:23.138Z,47.33
2024-05-09T07:00:50.703Z,47.70
2024-05-09T07:03:21.090Z,47.63
2024-05-09T07:05:49.668Z,47.73
2024-05-09T07:08:20.201Z,47.67
2024-05-09T07:10:50.515Z,47.73
2024-05-09T07:13:20.675Z,47.73
2024-05-09T07:15:48.093Z,47.70
2024-05-09T07:18:20.089Z,48.13
2024-05-09T07:20:49.560Z,48.03
2024-05-09T07:23:21.363Z,48.33
2024-05-09T07:25:51.519Z,48.27
2024-05-09T07:28:23.512Z,48.57
2024-05-09T07:30:50.932Z,48.00
2024-05-09T07:33:23.119Z,48.60
2024-05-09T07:35:51.908Z,48.50
2024-05-09T07:38:22.261Z,48.13
2024-05-09T07:40:52.542Z,48.47
2024-05-09T07:43:22.636Z,48.07
2024-05-09T07:45:54.043Z,48.23
2024-05-09T07:50:00.075Z,48.83
2024-05-09T07:53:52.147Z,49.53
2024-05-09T07:56:26.045Z,49.77
2024-05-09T07:58:56.636Z,50.07
2024-05-09T08:01:26.435Z,49.97
2024-05-09T08:03:57.415Z,49.80
2024-05-09T08:06:25.516Z,50.17
2024-05-09T08:08:56.056Z,50.00
2024-05-09T08:11:26.866Z,50.83
2024-05-09T08:13:56.931Z,51.53
2024-05-09T08:16:24.494Z,51.27
2024-05-09T08:18:54.598Z,51.83
2024-05-09T08:21:22.054Z,51.60
2024-05-09T08:23:52.314Z,51.87
2024-05-09T08:26:19.792Z,52.13
2024-05-09T08:28:52.398Z,52.33
2024-05-09T08:31:19.935Z,52.10
2024-05-09T08:33:51.581Z,52.10
2024-05-09T08:36:20.055Z,52.80
2024-05-09T08:38:50.082Z,52.63
2024-05-09T08:41:17.501Z,52.67
2024-05-09T08:43:47.815Z,52.50
2024-05-09T08:46:18.695Z,52.60
2024-05-09T08:48:54.892Z,52.70
2024-05-09T08:51:26.168Z,52.37
2024-05-09T08:53:56.261Z,52.70
2024-05-09T08:56:28.162Z,52.33
2024-05-09T08:59:02.708Z,51.77
2024-05-09T09:01:33.368Z,52.17
2024-05-09T09:04:06.646Z,53.03
2024-05-09T09:06:35.900Z,52.67
2024-05-09T09:09:07.019Z,52.80
2024-05-09T09:11:34.534Z,52.80
2024-05-09T09:14:04.591Z,53.27
2024-05-09T09:16:35.888Z,53.17
2024-05-09T09:19:06.864Z,53.20
2024-05-09T09:21:35.022Z,53.23
2024-05-09T09:24:06.962Z,53.13
2024-05-09T09:26:35.526Z,52.57
2024-05-09T09:29:05.595Z,53.00
2024-05-09T09:31:37.292Z,52.67
2024-05-09T09:34:10.721Z,52.80
2024-05-09T09:36:41.243Z,52.80
2024-05-09T09:39:12.773Z,53.13
2024-05-09T09:41:43.388Z,52.93
2024-05-09T09:44:13.621Z,53.60
2024-05-09T09:46:45.273Z,53.07
2024-05-09T09:49:15.591Z,53.10
2024-05-09T09:51:44.807Z,52.50
2024-05-09T09:54:16.598Z,52.70
2024-05-09T09:56:48.361Z,53.10
2024-05-09T09:59:19.692Z,52.90
2024-05-09T10:01:49.865Z,52.93
2024-05-09T10:04:21.194Z,53.53
2024-05-09T10:06:52.578Z,53.33
2024-05-09T10:09:22.851Z,53.27
2024-05-09T10:11:58.018Z,52.90
2024-05-09T10:14:33.405Z,53.03
2024-05-09T10:17:07.280Z,52.97
2024-05-09T10:19:37.398Z,53.13
2024-05-09T10:22:05.983Z,53.13
2024-05-09T10:24:49.865Z,53.30
2024-05-09T10:27:25.701Z,52.80
2024-05-09T10:29:56.104Z,53.00
2024-05-09T10:32:27.967Z,53.40
2024-05-09T10:35:08.230Z,53.67
2024-05-09T10:37:36.163Z,53.27
2024-05-09T10:40:11.957Z,53.10
2024-05-09T10:42:45.288Z,53.10
2024-05-09T10:45:18.530Z,53.20
2024-05-09T10:47:48.719Z,53.57
2024-05-09T10:50:25.655Z,53.37
2024-05-09T10:52:56.446Z,53.80
2024-05-09T10:55:27.372Z,53.50
2024-05-09T10:57:54.926Z,52.93
2024-05-09T11:00:30.671Z,53.37
2024-05-09T11:03:06.239Z,53.10
2024-05-09T11:05:36.753Z,53.10
2024-05-09T11:08:05.003Z,53.33
2024-05-09T11:10:35.192Z,53.17
2024-05-09T11:13:02.776Z,53.10
2024-05-09T11:15:41.578Z,52.80
2024-05-09T11:18:24.925Z,53.30
2024-05-09T11:20:56.752Z,52.77
2024-05-09T11:23:26.171Z,53.37
2024-05-09T11:25:57.512Z,53.30
2024-05-09T11:28:28.149Z,53.20
2024-05-09T11:31:09.637Z,53.60
2024-05-09T11:33:43.491Z,53.33
2024-05-09T11:36:13.836Z,53.63
2024-05-09T11:38:41.270Z,53.50
2024-05-09T11:41:11.419Z,53.20
2024-05-09T11:43:38.825Z,52.63
2024-05-09T11:46:08.910Z,52.77
2024-05-09T11:48:36.622Z,52.87
2024-05-09T11:51:09.490Z,53.00
2024-05-09T11:53:36.908Z,52.80
2024-05-09T11:56:07.435Z,52.50
2024-05-09T11:58:37.345Z,52.90
2024-05-09T12:01:07.921Z,52.80
2024-05-09T12:03:37.741Z,52.67
2024-05-09T12:06:10.718Z,52.73
2024-05-09T12:08:38.811Z,53.00
2024-05-09T12:11:09.010Z,53.13
2024-05-09T12:13:36.648Z,52.60
2024-05-09T12:16:06.851Z,52.90
2024-05-09T12:18:34.382Z,53.47
2024-05-09T12:21:04.912Z,53.50
2024-05-09T12:23:34.945Z,53.10
2024-05-09T12:26:05.502Z,53.23
2024-05-09T12:28:33.030Z,52.93
2024-05-09T12:31:03.077Z,53.60
2024-05-09T12:33:30.665Z,52.90
2024-05-09T12:36:00.973Z,52.67
2024-05-09T12:38:28.417Z,52.87
2024-05-09T12:41:01.084Z,53.00
2024-05-09T12:43:28.581Z,52.17
2024-05-09T12:45:58.831Z,53.17
2024-05-09T12:48:26.380Z,53.07
2024-05-09T12:50:57.490Z,53.03
2024-05-09T12:53:24.978Z,52.97
2024-05-09T12:55:59.936Z,53.27
2024-05-09T12:58:32.320Z,52.97
2024-05-09T13:01:02.434Z,53.00
2024-05-09T13:03:30.036Z,53.00
2024-05-09T13:06:00.523Z,52.50
2024-05-09T13:08:28.002Z,53.43
2024-05-09T13:10:58.118Z,52.73
2024-05-09T13:13:26.054Z,52.43
2024-05-09T13:15:58.888Z,52.80
2024-05-09T13:18:26.465Z,52.70
2024-05-09T13:20:56.549Z,52.33
2024-05-09T13:23:23.998Z,52.70
2024-05-09T13:25:54.138Z,52.80
2024-05-09T13:28:22.680Z,52.23
2024-05-09T13:30:52.763Z,52.77
2024-05-09T13:33:23.111Z,52.67
2024-05-09T13:35:53.264Z,52.27
2024-05-09T13:38:23.710Z,52.53
2024-05-09T13:40:51.392Z,52.70
2024-05-09T13:43:22.034Z,52.80
2024-05-09T13:45:50.080Z,52.90
2024-05-09T13:48:20.474Z,53.03
2024-05-09T13:50:50.652Z,52.33
2024-05-09T13:53:20.677Z,52.90
2024-05-09T13:55:48.737Z,52.63
2024-05-09T13:58:18.885Z,52.40
2024-05-09T14:00:48.949Z,52.63
2024-05-09T14:03:21.301Z,52.27
2024-05-09T14:05:54.452Z,52.93
2024-05-09T14:08:23.065Z,52.57
2024-05-09T14:10:53.712Z,52.40
2024-05-09T14:13:21.394Z,52.30
2024-05-09T14:15:51.870Z,52.50
2024-05-09T14:18:19.737Z,52.80
2024-05-09T14:20:49.796Z,52.70
2024-05-09T14:23:20.486Z,52.50
2024-05-09T14:25:52.855Z,53.23
2024-05-09T14:28:21.023Z,53.10
2024-05-09T14:30:51.267Z,52.53
2024-05-09T14:33:23.534Z,52.97
2024-05-09T14:35:53.730Z,53.40
2024-05-09T14:38:23.898Z,52.33
2024-05-09T14:40:54.228Z,53.00
2024-05-09T14:43:22.176Z,52.83
2024-05-09T14:45:53.241Z,53.20
2024-05-09T14:48:21.140Z,52.80
2024-05-09T14:50:51.308Z,53.00
2024-05-09T14:53:18.731Z,52.90
2024-05-09T14:55:51.656Z,52.97
2024-05-09T14:58:19.710Z,53.37
2024-05-09T15:00:51.728Z,52.60
2024-05-09T15:03:20.818Z,53.20
2024-05-09T15:05:52.343Z,52.60
2024-05-09T15:08:20.396Z,52.90
2024-05-09T15:10:53.325Z,53.47
2024-05-09T15:13:21.599Z,53.10
2024-05-09T15:15:51.914Z,52.80
2024-05-09T15:18:19.853Z,53.33
2024-05-09T15:20:50.335Z,52.63
2024-05-09T15:23:18.028Z,53.13
2024-05-09T15:25:48.160Z,52.80
2024-05-09T15:28:18.832Z,53.40
2024-05-09T15:30:49.029Z,53.20
2024-05-09T15:33:16.542Z,53.00
2024-05-09T15:35:46.954Z,52.67
2024-05-09T15:38:15.690Z,52.77
2024-05-09T15:40:45.987Z,52.83
2024-05-09T15:43:13.738Z,53.00
2024-05-09T15:45:46.526Z,52.67
2024-05-09T15:48:14.565Z,53.17
2024-05-09T15:50:45.204Z,52.77
2024-05-09T15:53:13.845Z,52.70
2024-05-09T15:55:45.579Z,52.77
2024-05-09T15:58:13.452Z,52.90
2024-05-09T16:00:49.571Z,52.70
2024-05-09T16:03:21.072Z,52.40
2024-05-09T16:05:51.764Z,53.00
2024-05-09T16:08:19.374Z,52.80
2024-05-09T16:10:49.854Z,52.37
2024-05-09T16:13:18.028Z,52.47
2024-05-09T16:15:51.091Z,52.53
2024-05-09T16:18:19.602Z,52.53
2024-05-09T16:20:50.501Z,52.47
2024-05-09T16:23:18.168Z,52.83
2024-05-09T16:25:48.642Z,52.63
2024-05-09T16:28:16.922Z,52.70
2024-05-09T16:30:47.084Z,52.67
2024-05-09T16:33:20.727Z,52.67
2024-05-09T16:35:50.991Z,52.17
2024-05-09T16:38:18.639Z,52.67
2024-05-09T16:40:48.939Z,52.23
2024-05-09T16:43:16.883Z,52.70
2024-05-09T16:45:47.331Z,52.10
2024-05-09T16:48:17.584Z,52.40
2024-05-09T16:50:47.660Z,52.43
2024-05-09T16:53:15.151Z,52.27
2024-05-09T16:55:45.166Z,52.80
2024-05-09T16:58:13.209Z,52.43
2024-05-09T17:00:44.392Z,52.63
2024-05-09T17:03:14.971Z,51.90
2024-05-09T17:05:50.376Z,52.50
2024-05-09T17:08:18.545Z,52.80
2024-05-09T17:10:49.918Z,52.23
2024-05-09T17:13:21.106Z,52.17
2024-05-09T17:15:51.739Z,52.47
2024-05-09T17:18:21.969Z,52.40
2024-05-09T17:20:54.825Z,52.53
2024-05-09T17:23:22.438Z,52.43
2024-05-09T17:25:52.532Z,52.27
2024-05-09T17:28:20.354Z,52.27
2024-05-09T17:30:51.010Z,51.90
2024-05-09T17:33:18.706Z,52.17
2024-05-09T17:35:50.359Z,52.27
2024-05-09T17:38:23.256Z,51.97
2024-05-09T17:40:54.333Z,52.77
2024-05-09T17:43:22.114Z,52.47
2024-05-09T17:45:52.359Z,52.60
2024-05-09T17:48:20.063Z,51.80
2024-05-09T17:50:51.381Z,52.17
2024-05-09T17:53:21.584Z,51.87
2024-05-09T17:55:53.777Z,51.87
2024-05-09T17:58:21.496Z,51.93
2024-05-09T18:00:52.240Z,52.40
2024-05-09T18:03:19.960Z,51.80
2024-05-09T18:05:50.203Z,52.07
2024-05-09T18:08:17.779Z,51.67
2024-05-09T18:10:52.137Z,51.47
2024-05-09T18:13:20.971Z,51.60
2024-05-09T18:15:51.342Z,51.33
2024-05-09T18:18:18.912Z,51.33
2024-05-09T18:20:49.199Z,52.27
2024-05-09T18:23:18.690Z,51.50
2024-05-09T18:25:54.431Z,51.50
2024-05-09T18:28:22.490Z,51.77
2024-05-09T18:30:52.718Z,51.63
2024-05-09T18:33:20.699Z,51.40
2024-05-09T18:35:50.802Z,51.30
2024-05-09T18:38:19.111Z,51.43
2024-05-09T18:40:51.808Z,51.47
2024-05-09T18:43:26.204Z,51.20
2024-05-09T18:46:01.371Z,50.77
2024-05-09T18:48:28.898Z,50.33
2024-05-09T18:50:59.008Z,51.30
2024-05-09T18:53:29.088Z,50.80
2024-05-09T18:55:59.142Z,51.60
2024-05-09T18:58:29.140Z,50.90
2024-05-09T19:00:58.446Z,51.00
2024-05-09T19:03:30.115Z,50.73
2024-05-09T19:05:57.805Z,50.60
2024-05-09T19:08:28.382Z,50.63
2024-05-09T19:10:55.894Z,50.73
2024-05-09T19:13:28.846Z,50.90
2024-05-09T19:15:57.117Z,51.10
2024-05-09T19:18:27.239Z,50.30
2024-05-09T19:20:54.734Z,51.10
2024-05-09T19:23:24.839Z,50.53
2024-05-09T19:25:52.290Z,50.40
2024-05-09T19:28:22.439Z,50.17
2024-05-09T19:30:52.800Z,50.77
2024-05-09T19:33:22.933Z,50.70
2024-05-09T19:35:50.435Z,50.13
2024-05-09T19:38:20.922Z,50.40
2024-05-09T19:40:48.555Z,50.17
2024-05-09T19:43:18.983Z,49.67
2024-05-09T19:45:47.080Z,50.07
2024-05-09T19:48:19.886Z,50.33
2024-05-09T19:50:50.548Z,50.10
2024-05-09T19:53:22.256Z,49.80
2024-05-09T19:55:49.656Z,50.10
2024-05-09T19:58:20.679Z,50.13
2024-05-09T20:00:49.378Z,49.60
2024-05-09T20:03:22.112Z,49.40
2024-05-09T20:05:49.834Z,49.57
2024-05-09T20:08:19.867Z,49.77
2024-05-09T20:10:47.453Z,50.40
2024-05-09T20:13:17.623Z,50.37
2024-05-09T20:15:45.187Z,50.03
2024-05-09T20:18:15.334Z,49.37
2024-05-09T20:20:46.127Z,49.80
2024-05-09T20:23:17.192Z,49.60
2024-05-09T20:25:44.605Z,49.67
2024-05-09T20:28:14.844Z,49.93
2024-05-09T20:30:42.534Z,49.67
2024-05-09T20:33:13.992Z,49.63
2024-05-09T20:35:41.631Z,50.17
2024-05-09T20:38:14.243Z,49.63
2024-05-09T20:40:41.780Z,49.77
2024-05-09T20:43:12.054Z,49.47
2024-05-09T20:45:40.489Z,49.67
2024-05-09T20:48:12.044Z,49.67
2024-05-09T20:50:41.977Z,49.07
2024-05-09T20:53:15.825Z,49.50
2024-05-09T20:55:43.858Z,49.20
2024-05-09T20:58:14.586Z,50.10
2024-05-09T21:00:44.890Z,49.10
2024-05-09T21:03:17.883Z,49.90
2024-05-09T21:05:46.597Z,49.57
2024-05-09T21:08:19.805Z,49.33
2024-05-09T21:10:47.616Z,49.47
2024-05-09T21:13:17.895Z,49.27
2024-05-09T21:15:45.595Z,49.40
2024-05-09T21:18:15.785Z,49.47
2024-05-09T21:20:43.356Z,49.47
2024-05-09T21:23:13.358Z,49.50
2024-05-09T21:25:43.456Z,49.27
2024-05-09T21:28:14.865Z,49.77
2024-05-09T21:30:43.333Z,49.80
2024-05-09T21:33:15.194Z,50.07
2024-05-09T21:35:44.011Z,50.77
2024-05-09T21:38:15.031Z,50.63
2024-05-09T21:40:45.600Z,51.23
2024-05-09T21:43:15.786Z,50.93
2024-05-09T21:45:43.577Z,52.13
2024-05-09T21:48:15.589Z,51.20
2024-05-09T21:50:43.209Z,51.27
2024-05-09T21:53:13.934Z,52.13
2024-05-09T21:55:44.691Z,51.33
2024-05-09T21:58:15.119Z,51.13
2024-05-09T22:00:45.539Z,51.93
2024-05-09T22:03:17.152Z,51.17
2024-05-09T22:05:45.286Z,51.63
2024-05-09T22:08:15.627Z,52.50
2024-05-09T22:10:45.949Z,52.17
2024-05-09T22:13:16.835Z,52.20
2024-05-09T22:15:44.649Z,51.27
2024-05-09T22:18:14.906Z,52.30
2024-05-09T22:20:45.184Z,52.07
2024-05-09T22:23:17.151Z,52.17
2024-05-09T22:25:47.315Z,52.13
2024-05-09T22:28:18.504Z,52.33
2024-05-09T22:30:47.157Z,52.10
2024-05-09T22:33:18.124Z,52.50
2024-05-09T22:35:45.669Z,51.83
2024-05-09T22:38:15.752Z,51.37
2024-05-09T22:40:48.249Z,51.77
2024-05-09T22:43:24.889Z,52.10
2024-05-09T22:45:53.736Z,52.13
2024-05-09T22:48:24.512Z,52.53
2024-05-09T22:50:52.531Z,52.17
2024-05-09T22:53:25.258Z,51.40
2024-05-09T22:55:53.105Z,52.10
2024-05-09T22:58:26.062Z,52.30
2024-05-09T23:00:53.739Z,52.33
2024-05-09T23:03:24.052Z,52.47
2024-05-09T23:05:51.679Z,51.90
2024-05-09T23:08:21.707Z,52.23
2024-05-09T23:10:49.228Z,52.00
2024-05-09T23:13:19.623Z,51.90
2024-05-09T23:15:49.960Z,52.43
2024-05-09T23:18:20.172Z,51.43
2024-05-09T23:20:47.685Z,51.80
2024-05-09T23:23:17.755Z,52.30
2024-05-09T23:25:45.176Z,52.20
2024-05-09T23:28:15.646Z,51.63
2024-05-09T23:30:43.107Z,52.03
2024-05-09T23:33:16.182Z,52.30
2024-05-09T23:35:44.525Z,51.63
2024-05-09T23:38:15.066Z,52.00
2024-05-09T23:40:43.256Z,52.00
2024-05-09T23:43:14.172Z,51.70
2024-05-09T23:45:42.788Z,52.03
2024-05-09T23:48:15.772Z,51.73
2024-05-09T23:50:44.196Z,51.67
2024-05-09T23:53:14.492Z,51.87
2024-05-09T23:55:42.112Z,51.87
2024-05-09T23:58:12.461Z,51.90
